createdAt,value
2022-12-29T00:02:10.815Z,68.11
2022-12-29T00:05:13.710Z,68.81
2022-12-29T00:08:16.760Z,68.94
2022-12-29T00:11:21.681Z,69.32
2022-12-29T00:14:41.868Z,69.05
2022-12-29T00:17:46.803Z,70.37
2022-12-29T00:21:07.113Z,69.90
2022-12-29T00:24:31.224Z,67.91
2022-12-29T00:27:53.844Z,66.88
2022-12-29T00:31:18.906Z,66.16
2022-12-29T00:34:55.283Z,66.56
2022-12-29T00:38:18.789Z,66.10
2022-12-29T00:41:39.190Z,66.01
2022-12-29T00:44:42.010Z,65.18
2022-12-29T00:47:44.863Z,65.62
2022-12-29T00:50:49.158Z,65.46
2022-12-29T00:53:51.998Z,65.59
2022-12-29T00:56:55.367Z,65.29
2022-12-29T00:59:58.460Z,65.03
2022-12-29T01:03:01.498Z,65.23
2022-12-29T01:06:07.400Z,65.68
2022-12-29T01:09:28.984Z,65.53
2022-12-29T01:12:45.801Z,64.64
2022-12-29T01:15:52.154Z,65.40
2022-12-29T01:18:54.999Z,65.49
2022-12-29T01:21:59.339Z,66.34
2022-12-29T01:25:02.050Z,66.93
2022-12-29T01:28:05.247Z,67.63
2022-12-29T01:31:08.108Z,67.68
2022-12-29T01:34:11.585Z,68.72
2022-12-29T01:37:15.917Z,69.29
2022-12-29T01:40:18.955Z,69.37
2022-12-29T01:43:22.103Z,68.22
2022-12-29T01:46:28.998Z,67.91
2022-12-29T01:49:32.275Z,67.25
2022-12-29T01:52:39.717Z,67.13
2022-12-29T01:55:45.325Z,66.10
2022-12-29T01:58:52.593Z,65.74
2022-12-29T02:01:56.588Z,66.03
2022-12-29T02:05:04.644Z,65.27
2022-12-29T02:08:10.146Z,65.37
2022-12-29T02:11:13.372Z,65.55
2022-12-29T02:14:17.226Z,64.82
2022-12-29T02:17:34.164Z,64.84
2022-12-29T02:21:16.907Z,64.44
2022-12-29T02:25:02.967Z,64.89
2022-12-29T02:28:51.063Z,65.43
2022-12-29T02:32:01.438Z,66.43
2022-12-29T02:35:11.551Z,66.69
2022-12-29T02:38:22.638Z,65.80
2022-12-29T02:41:33.260Z,65.07
2022-12-29T02:44:44.960Z,64.91
2022-12-29T02:47:56.274Z,65.02
2022-12-29T02:51:03.425Z,64.16
2022-12-29T02:54:29.480Z,63.69
2022-12-29T02:57:35.216Z,63.63
2022-12-29T03:00:45.523Z,63.67
2022-12-29T03:04:03.959Z,63.33
2022-12-29T03:07:16.721Z,62.65
2022-12-29T03:10:35.434Z,62.51
2022-12-29T03:14:03.177Z,62.18
2022-12-29T03:17:12.007Z,62.46
2022-12-29T03:20:22.582Z,62.76
2022-12-29T03:23:27.097Z,62.23
2022-12-29T03:26:30.532Z,61.90
2022-12-29T03:29:37.653Z,61.54
2022-12-29T03:32:44.634Z,61.91
2022-12-29T03:35:51.376Z,61.21
2022-12-29T03:39:01.661Z,61.41
2022-12-29T03:42:08.724Z,61.13
2022-12-29T03:45:12.905Z,61.27
2022-12-29T03:48:15.713Z,61.50
2022-12-29T03:51:19.807Z,61.73
2022-12-29T03:54:23.002Z,61.62
2022-12-29T03:57:25.771Z,61.12
2022-12-29T04:00:29.297Z,61.78
2022-12-29T04:03:32.530Z,61.72
2022-12-29T04:06:36.806Z,62.09
2022-12-29T04:09:39.933Z,62.40
2022-12-29T04:12:43.690Z,62.59
2022-12-29T04:15:46.909Z,63.38
2022-12-29T04:18:50.142Z,63.65
2022-12-29T04:21:54.267Z,64.17
2022-12-29T04:24:57.001Z,63.88
2022-12-29T04:27:59.867Z,64.10
2022-12-29T04:31:03.007Z,64.10
2022-12-29T04:34:05.882Z,64.55
2022-12-29T04:37:10.056Z,65.02
2022-12-29T04:40:13.709Z,64.24
2022-12-29T04:43:17.010Z,64.68
2022-12-29T04:46:21.299Z,64.65
2022-12-29T04:49:24.348Z,64.29
2022-12-29T04:52:28.469Z,64.57
2022-12-29T04:55:31.578Z,64.96
2022-12-29T04:58:34.277Z,65.45
2022-12-29T05:01:37.026Z,65.47
2022-12-29T05:04:39.838Z,65.51
2022-12-29T05:07:44.731Z,66.00
2022-12-29T05:10:47.698Z,65.91
2022-12-29T05:13:50.482Z,65.75
2022-12-29T05:16:53.945Z,66.00
2022-12-29T05:19:56.970Z,65.47
2022-12-29T05:23:01.721Z,65.88
2022-12-29T05:26:04.421Z,65.93
2022-12-29T05:29:07.180Z,65.81
2022-12-29T05:32:11.205Z,65.51
2022-12-29T05:35:13.938Z,64.87
2022-12-29T05:38:19.162Z,64.73
2022-12-29T05:41:22.446Z,64.91
2022-12-29T05:44:25.358Z,64.42
2022-12-29T05:47:28.023Z,64.11
2022-12-29T05:50:30.758Z,64.28
2022-12-29T05:53:34.940Z,64.06
2022-12-29T05:56:37.737Z,64.01
2022-12-29T05:59:40.457Z,64.41
2022-12-29T06:02:43.363Z,64.25
2022-12-29T06:05:46.879Z,63.91
2022-12-29T06:08:51.079Z,64.00
2022-12-29T06:11:53.878Z,64.04
2022-12-29T06:14:56.846Z,63.62
2022-12-29T06:17:59.565Z,63.79
2022-12-29T06:21:02.923Z,63.96
2022-12-29T06:24:08.387Z,63.83
2022-12-29T06:27:11.198Z,63.79
2022-12-29T06:30:15.982Z,63.52
2022-12-29T06:33:18.764Z,63.81
2022-12-29T06:36:21.551Z,63.60
2022-12-29T06:39:25.735Z,63.73
2022-12-29T06:42:28.490Z,64.26
2022-12-29T06:45:31.305Z,63.62
2022-12-29T06:48:34.125Z,63.35
2022-12-29T06:51:36.950Z,63.70
2022-12-29T06:54:41.109Z,63.35
2022-12-29T06:57:43.893Z,63.84
2022-12-29T07:00:46.609Z,63.50
2022-12-29T07:03:49.428Z,63.40
2022-12-29T07:06:52.185Z,62.97
2022-12-29T07:09:56.283Z,63.49
2022-12-29T07:12:59.100Z,63.53
2022-12-29T07:16:01.954Z,63.32
2022-12-29T07:19:05.004Z,63.63
2022-12-29T07:22:07.743Z,62.96
2022-12-29T07:25:12.520Z,63.53
2022-12-29T07:28:15.259Z,63.21
2022-12-29T07:31:20.191Z,62.89
2022-12-29T07:34:23.513Z,63.11
2022-12-29T07:37:26.611Z,63.48
2022-12-29T07:40:30.906Z,63.07
2022-12-29T07:43:33.744Z,62.92
2022-12-29T07:46:55.923Z,63.30
2022-12-29T07:50:00.207Z,62.80
2022-12-29T07:53:03.071Z,62.87
2022-12-29T07:56:08.133Z,63.03
2022-12-29T07:59:10.825Z,63.48
2022-12-29T08:02:13.735Z,63.49
2022-12-29T08:05:17.471Z,63.57
2022-12-29T08:08:20.518Z,63.10
2022-12-29T08:11:25.229Z,63.67
2022-12-29T08:14:28.072Z,63.70
2022-12-29T08:17:30.896Z,64.05
2022-12-29T08:20:34.380Z,63.70
2022-12-29T08:23:37.463Z,63.50
2022-12-29T08:26:41.604Z,63.26
2022-12-29T08:29:44.387Z,62.61
2022-12-29T08:32:47.194Z,62.88
2022-12-29T08:35:50.346Z,62.72
2022-12-29T08:38:53.027Z,62.42
2022-12-29T08:41:57.559Z,62.94
2022-12-29T08:45:01.212Z,63.41
2022-12-29T08:48:04.355Z,62.89
2022-12-29T08:51:07.319Z,63.14
2022-12-29T08:54:10.901Z,63.26
2022-12-29T08:57:15.516Z,62.23
2022-12-29T09:00:18.723Z,62.18
2022-12-29T09:03:45.567Z,62.35
2022-12-29T09:06:45.184Z,62.01
2022-12-29T09:09:48.782Z,61.75
2022-12-29T09:12:53.338Z,62.03
2022-12-29T09:16:00.526Z,61.29
2022-12-29T09:19:03.490Z,61.86
2022-12-29T09:22:06.634Z,61.57
2022-12-29T09:25:10.495Z,61.06
2022-12-29T09:28:14.636Z,60.83
2022-12-29T09:31:17.567Z,60.91
2022-12-29T09:34:20.364Z,60.65
2022-12-29T09:37:23.409Z,60.63
2022-12-29T09:40:31.192Z,60.88
2022-12-29T09:43:56.896Z,60.39
2022-12-29T09:47:01.729Z,60.26
2022-12-29T09:50:12.597Z,59.60
2022-12-29T09:53:23.597Z,58.71
2022-12-29T09:56:29.355Z,58.64
2022-12-29T09:59:41.998Z,57.82
2022-12-29T10:02:48.785Z,57.89
2022-12-29T10:06:00.453Z,58.00
2022-12-29T10:09:09.186Z,58.19
2022-12-29T10:12:24.922Z,58.43
2022-12-29T10:15:43.775Z,59.13
2022-12-29T10:19:11.887Z,59.92
2022-12-29T10:22:28.425Z,60.29
2022-12-29T10:25:36.684Z,59.90
2022-12-29T10:28:44.376Z,60.23
2022-12-29T10:31:52.395Z,59.64
2022-12-29T10:35:03.055Z,59.72
2022-12-29T10:38:17.743Z,59.37
2022-12-29T10:41:25.926Z,59.11
2022-12-29T10:44:32.924Z,59.45
2022-12-29T10:47:44.896Z,59.18
2022-12-29T10:50:48.252Z,59.04
2022-12-29T10:53:55.137Z,57.78
2022-12-29T10:57:03.279Z,57.29
2022-12-29T11:00:14.495Z,57.19
2022-12-29T11:03:36.463Z,57.41
2022-12-29T11:06:39.485Z,58.43
2022-12-29T11:09:43.544Z,57.70
2022-12-29T11:13:00.149Z,58.03
2022-12-29T11:16:03.959Z,59.31
2022-12-29T11:19:08.420Z,59.04
2022-12-29T11:22:17.009Z,59.20
2022-12-29T11:25:19.990Z,59.49
2022-12-29T11:28:30.414Z,59.47
2022-12-29T11:31:33.225Z,59.60
2022-12-29T11:34:38.290Z,57.87
2022-12-29T11:37:41.916Z,58.47
2022-12-29T11:40:45.184Z,58.72
2022-12-29T11:43:48.972Z,57.80
2022-12-29T11:46:54.437Z,57.68
2022-12-29T11:50:02.426Z,57.47
2022-12-29T11:53:12.187Z,57.31
2022-12-29T11:56:18.443Z,57.09
2022-12-29T11:59:43.719Z,58.02
2022-12-29T12:02:52.947Z,59.68
2022-12-29T12:06:00.741Z,63.31
2022-12-29T12:09:08.211Z,65.14
2022-12-29T12:12:23.788Z,66.33
2022-12-29T12:15:32.186Z,67.66
2022-12-29T12:18:43.863Z,68.78
2022-12-29T12:21:55.492Z,68.64
2022-12-29T12:25:01.847Z,68.02
2022-12-29T12:28:17.348Z,68.78
2022-12-29T12:31:36.327Z,68.89
2022-12-29T12:34:43.927Z,68.35
2022-12-29T12:38:10.251Z,67.75
2022-12-29T12:41:21.324Z,67.54
2022-12-29T12:44:35.914Z,67.03
2022-12-29T12:48:02.672Z,66.15
2022-12-29T12:51:21.091Z,64.57
2022-12-29T12:54:43.958Z,63.20
2022-12-29T12:57:58.405Z,62.48
2022-12-29T13:01:17.677Z,57.79
2022-12-29T13:04:38.164Z,53.55
2022-12-29T13:07:54.475Z,49.21
2022-12-29T13:11:08.773Z,50.37
2022-12-29T13:14:27.974Z,53.82
2022-12-29T13:17:39.111Z,53.70
2022-12-29T13:20:49.430Z,55.61
2022-12-29T13:24:01.460Z,59.14
2022-12-29T13:27:16.048Z,60.99
2022-12-29T13:30:21.756Z,62.68
2022-12-29T13:33:31.179Z,63.82
2022-12-29T13:36:39.409Z,65.06
2022-12-29T13:39:48.030Z,65.74
2022-12-29T13:42:53.045Z,66.28
2022-12-29T13:46:03.391Z,66.58
2022-12-29T13:49:14.699Z,67.56
2022-12-29T13:52:26.914Z,67.76
2022-12-29T13:55:35.179Z,67.83
2022-12-29T13:58:48.292Z,68.27
2022-12-29T14:01:56.884Z,68.06
2022-12-29T14:05:02.573Z,67.95
2022-12-29T14:08:08.525Z,68.22
2022-12-29T14:11:13.215Z,68.51
2022-12-29T14:14:24.869Z,69.04
2022-12-29T14:17:27.791Z,69.20
2022-12-29T14:20:30.760Z,69.93
2022-12-29T14:23:41.786Z,69.60
2022-12-29T14:26:44.544Z,69.85
2022-12-29T14:29:50.183Z,70.32
2022-12-29T14:33:04.648Z,69.98
2022-12-29T14:36:21.987Z,69.92
2022-12-29T14:39:40.129Z,69.93
2022-12-29T14:42:44.584Z,69.19
2022-12-29T14:45:56.257Z,69.87
2022-12-29T14:49:02.013Z,70.40
2022-12-29T14:52:16.117Z,70.74
2022-12-29T14:55:40.498Z,70.84
2022-12-29T14:58:49.493Z,70.69
2022-12-29T15:01:56.090Z,71.09
2022-12-29T15:05:02.714Z,71.16
2022-12-29T15:08:08.199Z,70.56
2022-12-29T15:11:16.015Z,70.63
2022-12-29T15:14:34.576Z,71.03
2022-12-29T15:17:39.612Z,71.16
2022-12-29T15:20:44.613Z,71.62
2022-12-29T15:23:49.034Z,72.04
2022-12-29T15:26:54.148Z,72.49
2022-12-29T15:30:02.815Z,72.26
2022-12-29T15:33:20.740Z,72.32
2022-12-29T15:36:26.240Z,73.20
2022-12-29T15:39:32.110Z,74.54
2022-12-29T15:42:52.698Z,76.41
2022-12-29T15:45:56.711Z,79.14
2022-12-29T15:49:01.453Z,81.36
2022-12-29T15:52:08.683Z,82.84
2022-12-29T15:55:22.519Z,84.58
2022-12-29T15:58:27.199Z,85.74
2022-12-29T16:01:33.057Z,86.41
2022-12-29T16:04:54.309Z,87.37
2022-12-29T16:08:02.383Z,88.49
2022-12-29T16:11:10.210Z,88.46
2022-12-29T16:14:19.291Z,88.94
2022-12-29T16:17:25.059Z,89.71
2022-12-29T16:20:45.551Z,89.31
2022-12-29T16:23:52.001Z,90.18
2022-12-29T16:27:01.694Z,89.55
2022-12-29T16:30:08.891Z,90.57
2022-12-29T16:33:37.592Z,91.81
2022-12-29T16:36:56.103Z,91.67
2022-12-29T16:40:19.024Z,92.54
2022-12-29T16:43:43.498Z,92.34
2022-12-29T16:47:00.251Z,93.08
2022-12-29T16:50:14.755Z,93.25
2022-12-29T16:53:26.359Z,93.84
2022-12-29T16:56:32.601Z,93.73
2022-12-29T16:59:37.641Z,94.58
2022-12-29T17:02:45.900Z,93.89
2022-12-29T17:05:52.749Z,95.21
2022-12-29T17:09:02.498Z,95.21
2022-12-29T17:12:17.421Z,95.46
2022-12-29T17:15:27.629Z,95.91
2022-12-29T17:18:30.624Z,95.95
2022-12-29T17:21:35.709Z,95.84
2022-12-29T17:24:40.385Z,95.12
2022-12-29T17:27:48.228Z,95.42
2022-12-29T17:30:52.410Z,95.14
2022-12-29T17:33:56.994Z,95.35
2022-12-29T17:37:00.226Z,95.46
2022-12-29T17:40:16.216Z,95.92
2022-12-29T17:43:20.084Z,96.22
2022-12-29T17:46:23.393Z,95.94
2022-12-29T17:49:26.255Z,96.00
2022-12-29T17:52:36.930Z,96.31
2022-12-29T17:55:41.778Z,96.70
2022-12-29T17:58:44.698Z,96.31
2022-12-29T18:01:49.405Z,96.90
2022-12-29T18:04:52.580Z,96.94
2022-12-29T18:07:59.856Z,96.67
2022-12-29T18:11:04.943Z,96.02
2022-12-29T18:14:12.625Z,94.21
2022-12-29T18:17:15.734Z,93.03
2022-12-29T18:20:18.737Z,93.12
2022-12-29T18:23:26.801Z,93.60
2022-12-29T18:26:35.451Z,93.16
2022-12-29T18:29:40.499Z,94.02
2022-12-29T18:32:43.369Z,93.48
2022-12-29T18:35:51.892Z,93.63
2022-12-29T18:38:56.958Z,92.62
2022-12-29T18:42:06.597Z,92.31
2022-12-29T18:45:17.942Z,92.87
2022-12-29T18:48:24.145Z,91.31
2022-12-29T18:51:27.915Z,92.15
2022-12-29T18:54:32.703Z,92.01
2022-12-29T18:57:37.106Z,92.05
2022-12-29T19:00:40.129Z,92.17
2022-12-29T19:03:42.865Z,91.70
2022-12-29T19:06:45.812Z,92.00
2022-12-29T19:09:48.829Z,92.36
2022-12-29T19:12:53.605Z,92.48
2022-12-29T19:15:57.647Z,92.00
2022-12-29T19:19:10.029Z,92.70
2022-12-29T19:22:12.782Z,92.55
2022-12-29T19:25:15.866Z,91.73
2022-12-29T19:28:21.685Z,91.35
2022-12-29T19:31:24.581Z,91.02
2022-12-29T19:34:27.277Z,92.16
2022-12-29T19:37:30.259Z,92.55
2022-12-29T19:40:33.018Z,93.22
2022-12-29T19:43:37.029Z,93.66
2022-12-29T19:46:39.714Z,93.67
2022-12-29T19:49:43.314Z,93.94
2022-12-29T19:52:46.464Z,94.33
2022-12-29T19:55:49.565Z,94.33
2022-12-29T19:59:00.250Z,94.66
2022-12-29T20:02:03.930Z,95.29
2022-12-29T20:05:08.366Z,95.15
2022-12-29T20:08:10.980Z,95.19
2022-12-29T20:11:16.630Z,95.47
2022-12-29T20:14:20.698Z,96.08
2022-12-29T20:17:54.018Z,95.14
2022-12-29T20:20:45.908Z,94.13
2022-12-29T20:23:49.137Z,93.93
2022-12-29T20:26:52.972Z,93.83
2022-12-29T20:29:56.966Z,93.36
2022-12-29T20:33:04.663Z,93.77
2022-12-29T20:36:15.122Z,93.74
2022-12-29T20:39:20.430Z,94.43
2022-12-29T20:42:23.130Z,93.67
2022-12-29T20:45:27.243Z,93.64
2022-12-29T20:48:32.400Z,94.15
2022-12-29T20:52:04.934Z,94.42
2022-12-29T20:55:00.717Z,94.32
2022-12-29T21:01:28.282Z,94.04
2022-12-29T21:04:50.257Z,93.74
2022-12-29T21:07:59.485Z,94.17
2022-12-29T21:11:02.416Z,94.13
2022-12-29T21:14:08.999Z,94.16
2022-12-29T21:17:13.027Z,94.63
2022-12-29T21:20:21.960Z,93.99
2022-12-29T21:23:25.735Z,93.50
2022-12-29T21:26:28.463Z,92.18
2022-12-29T21:29:31.287Z,91.71
2022-12-29T21:32:35.971Z,91.24
2022-12-29T21:35:39.714Z,90.58
2022-12-29T21:38:42.728Z,88.86
2022-12-29T21:41:45.367Z,88.49
2022-12-29T21:45:05.518Z,88.17
2022-12-29T21:48:25.057Z,88.20
2022-12-29T21:51:45.258Z,87.14
2022-12-29T21:55:04.858Z,86.38
2022-12-29T21:58:25.156Z,86.24
2022-12-29T22:01:46.656Z,85.39
2022-12-29T22:05:08.397Z,84.28
2022-12-29T22:08:28.832Z,84.76
2022-12-29T22:11:48.946Z,85.42
2022-12-29T22:14:51.547Z,85.23
2022-12-29T22:17:55.714Z,84.33
2022-12-29T22:20:59.899Z,85.33
2022-12-29T22:24:02.946Z,83.82
2022-12-29T22:27:05.603Z,83.80
2022-12-29T22:30:09.328Z,84.01
2022-12-29T22:33:12.037Z,83.82
2022-12-29T22:36:16.015Z,83.27
2022-12-29T22:39:18.704Z,82.58
2022-12-29T22:42:21.549Z,83.15
2022-12-29T22:45:24.194Z,83.42
2022-12-29T22:48:26.931Z,83.93
2022-12-29T22:51:30.935Z,85.06
2022-12-29T22:54:33.647Z,85.33
2022-12-29T22:57:36.773Z,85.55
2022-12-29T23:00:39.421Z,84.75
2022-12-29T23:03:42.166Z,85.15
2022-12-29T23:06:46.278Z,86.33
2022-12-29T23:09:48.937Z,86.93
2022-12-29T23:12:51.809Z,86.93
2022-12-29T23:15:56.319Z,86.71
2022-12-29T23:18:59.013Z,87.42
2022-12-29T23:22:03.073Z,87.69
2022-12-29T23:25:06.456Z,88.45
2022-12-29T23:28:09.780Z,88.80
2022-12-29T23:31:12.663Z,88.83
2022-12-29T23:34:16.990Z,88.54
2022-12-29T23:37:21.023Z,88.02
2022-12-29T23:40:23.723Z,87.65
2022-12-29T23:43:26.566Z,88.50
2022-12-29T23:46:31.340Z,88.82
2022-12-29T23:49:34.107Z,89.29
2022-12-29T23:52:38.383Z,89.04
2022-12-29T23:55:44.222Z,89.42
2022-12-29T23:58:47.019Z,89.70
